sensor_id;sensor_type;location;lat;lon;timestamp;P1;durP1;ratioP1;P2;durP2;ratioP2
6941;SDS011;3510;43.200;27.920;2023-02-28T00:01:33;3.90;;;3.60;;
6941;SDS011;3510;43.200;27.920;2023-02-28T00:04:14;4.28;;;4.00;;
6941;SDS011;3510;43.200;27.920;2023-02-28T00:06:54;3.77;;;3.57;;
6941;SDS011;3510;43.200;27.920;2023-02-28T01:43:28;4.33;;;4.03;;
6941;SDS011;3510;43.200;27.920;2023-02-28T01:45:57;4.20;;;4.00;;
6941;SDS011;3510;43.200;27.920;2023-02-28T01:48:25;5.17;;;4.77;;
6941;SDS011;3510;43.200;27.920;2023-02-28T01:50:56;5.77;;;5.37;;
6941;SDS011;3510;43.200;27.920;2023-02-28T01:53:29;5.07;;;4.77;;
6941;SDS011;3510;43.200;27.920;2023-02-28T01:56:00;5.07;;;4.83;;
6941;SDS011;3510;43.200;27.920;2023-02-28T01:58:30;6.40;;;6.10;;
6941;SDS011;3510;43.200;27.920;2023-02-28T02:00:57;5.30;;;5.00;;
6941;SDS011;3510;43.200;27.920;2023-02-28T02:03:24;4.87;;;4.57;;
6941;SDS011;3510;43.200;27.920;2023-02-28T02:05:51;5.73;;;5.33;;
6941;SDS011;3510;43.200;27.920;2023-02-28T02:08:19;5.63;;;4.87;;
6941;SDS011;3510;43.200;27.920;2023-02-28T09:40:52;8.77;;;7.87;;
6941;SDS011;3510;43.200;27.920;2023-02-28T09:43:22;7.00;;;6.43;;
6941;SDS011;3510;43.200;27.920;2023-02-28T09:45:51;7.37;;;6.60;;
6941;SDS011;3510;43.200;27.920;2023-02-28T09:48:27;6.87;;;6.27;;
6941;SDS011;3510;43.200;27.920;2023-02-28T09:51:00;6.93;;;6.17;;
6941;SDS011;3510;43.200;27.920;2023-02-28T09:53:31;8.57;;;7.77;;
6941;SDS011;3510;43.200;27.920;2023-02-28T09:56:01;7.40;;;6.37;;
6941;SDS011;3510;43.200;27.920;2023-02-28T09:58:33;6.93;;;6.33;;
6941;SDS011;3510;43.200;27.920;2023-02-28T10:01:07;11.27;;;6.30;;
6941;SDS011;3510;43.200;27.920;2023-02-28T10:03:45;6.40;;;5.27;;
6941;SDS011;3510;43.200;27.920;2023-02-28T10:06:19;9.03;;;5.80;;
6941;SDS011;3510;43.200;27.920;2023-02-28T10:08:50;8.83;;;6.37;;
6941;SDS011;3510;43.200;27.920;2023-02-28T10:11:24;6.23;;;5.53;;
6941;SDS011;3510;43.200;27.920;2023-02-28T10:13:54;7.87;;;5.23;;
6941;SDS011;3510;43.200;27.920;2023-02-28T10:16:28;11.53;;;5.47;;
6941;SDS011;3510;43.200;27.920;2023-02-28T10:19:02;7.93;;;5.00;;
6941;SDS011;3510;43.200;27.920;2023-02-28T10:21:35;5.30;;;4.83;;
6941;SDS011;3510;43.200;27.920;2023-02-28T10:24:09;5.87;;;4.73;;
6941;SDS011;3510;43.200;27.920;2023-02-28T10:26:45;7.17;;;5.73;;
6941;SDS011;3510;43.200;27.920;2023-02-28T10:29:14;4.87;;;4.47;;
6941;SDS011;3510;43.200;27.920;2023-02-28T10:31:41;5.53;;;4.90;;
6941;SDS011;3510;43.200;27.920;2023-02-28T10:34:10;10.00;;;5.10;;
6941;SDS011;3510;43.200;27.920;2023-02-28T10:42:01;5.87;;;5.40;;
6941;SDS011;3510;43.200;27.920;2023-02-28T10:44:28;4.97;;;4.57;;
6941;SDS011;3510;43.200;27.920;2023-02-28T10:46:54;8.57;;;4.93;;
6941;SDS011;3510;43.200;27.920;2023-02-28T10:49:24;4.40;;;4.10;;
6941;SDS011;3510;43.200;27.920;2023-02-28T10:51:54;9.87;;;4.70;;
6941;SDS011;3510;43.200;27.920;2023-02-28T10:54:24;5.13;;;4.73;;
6941;SDS011;3510;43.200;27.920;2023-02-28T10:59:48;5.80;;;5.30;;
6941;SDS011;3510;43.200;27.920;2023-02-28T11:05:00;5.83;;;5.23;;
6941;SDS011;3510;43.200;27.920;2023-02-28T11:07:27;8.43;;;5.77;;
6941;SDS011;3510;43.200;27.920;2023-02-28T11:09:58;6.70;;;5.70;;
6941;SDS011;3510;43.200;27.920;2023-02-28T11:12:27;7.17;;;6.20;;
6941;SDS011;3510;43.200;27.920;2023-02-28T11:15:04;8.30;;;5.70;;
6941;SDS011;3510;43.200;27.920;2023-02-28T11:17:44;8.13;;;5.73;;
6941;SDS011;3510;43.200;27.920;2023-02-28T11:20:20;6.23;;;5.70;;
6941;SDS011;3510;43.200;27.920;2023-02-28T11:22:50;11.30;;;6.03;;
6941;SDS011;3510;43.200;27.920;2023-02-28T11:25:21;7.90;;;6.10;;
6941;SDS011;3510;43.200;27.920;2023-02-28T11:27:52;6.20;;;5.63;;
6941;SDS011;3510;43.200;27.920;2023-02-28T11:30:25;11.13;;;6.23;;
6941;SDS011;3510;43.200;27.920;2023-02-28T11:35:47;11.17;;;7.90;;
6941;SDS011;3510;43.200;27.920;2023-02-28T11:38:16;6.50;;;5.97;;
6941;SDS011;3510;43.200;27.920;2023-02-28T11:40:43;11.73;;;6.23;;
6941;SDS011;3510;43.200;27.920;2023-02-28T11:43:30;7.10;;;6.40;;
6941;SDS011;3510;43.200;27.920;2023-02-28T11:46:17;6.33;;;5.70;;
6941;SDS011;3510;43.200;27.920;2023-02-28T11:48:54;5.73;;;5.23;;
6941;SDS011;3510;43.200;27.920;2023-02-28T11:51:30;8.00;;;5.47;;
6941;SDS011;3510;43.200;27.920;2023-02-28T11:54:08;7.63;;;5.13;;
6941;SDS011;3510;43.200;27.920;2023-02-28T11:56:50;5.87;;;5.27;;
6941;SDS011;3510;43.200;27.920;2023-02-28T11:59:27;5.83;;;5.17;;
6941;SDS011;3510;43.200;27.920;2023-02-28T12:02:20;7.03;;;5.03;;
6941;SDS011;3510;43.200;27.920;2023-02-28T12:04:52;7.27;;;5.47;;
6941;SDS011;3510;43.200;27.920;2023-02-28T12:07:31;6.97;;;5.90;;
6941;SDS011;3510;43.200;27.920;2023-02-28T12:10:06;6.67;;;5.73;;
6941;SDS011;3510;43.200;27.920;2023-02-28T12:12:45;6.53;;;5.60;;
6941;SDS011;3510;43.200;27.920;2023-02-28T12:15:27;11.93;;;5.77;;
6941;SDS011;3510;43.200;27.920;2023-02-28T12:18:11;6.33;;;5.80;;
6941;SDS011;3510;43.200;27.920;2023-02-28T12:20:52;6.77;;;6.07;;
6941;SDS011;3510;43.200;27.920;2023-02-28T12:23:29;5.83;;;5.23;;
6941;SDS011;3510;43.200;27.920;2023-02-28T12:26:19;6.13;;;5.50;;
6941;SDS011;3510;43.200;27.920;2023-02-28T12:28:56;6.80;;;6.10;;
6941;SDS011;3510;43.200;27.920;2023-02-28T12:31:30;7.20;;;6.50;;
6941;SDS011;3510;43.200;27.920;2023-02-28T12:34:03;7.17;;;6.47;;
6941;SDS011;3510;43.200;27.920;2023-02-28T12:36:34;15.02;;;8.40;;
6941;SDS011;3510;43.200;27.920;2023-02-28T12:39:04;6.73;;;6.23;;
6941;SDS011;3510;43.200;27.920;2023-02-28T12:41:38;7.87;;;7.00;;
6941;SDS011;3510;43.200;27.920;2023-02-28T12:44:09;8.83;;;8.20;;
6941;SDS011;3510;43.200;27.920;2023-02-28T12:46:42;8.33;;;7.47;;
6941;SDS011;3510;43.200;27.920;2023-02-28T12:49:15;11.40;;;7.37;;
6941;SDS011;3510;43.200;27.920;2023-02-28T12:54:14;9.90;;;9.03;;
6941;SDS011;3510;43.200;27.920;2023-02-28T12:56:47;7.70;;;7.00;;
6941;SDS011;3510;43.200;27.920;2023-02-28T12:59:22;11.93;;;9.10;;
6941;SDS011;3510;43.200;27.920;2023-02-28T13:02:00;9.40;;;7.30;;
6941;SDS011;3510;43.200;27.920;2023-02-28T13:04:47;9.60;;;7.80;;
6941;SDS011;3510;43.200;27.920;2023-02-28T13:07:31;10.50;;;9.57;;
6941;SDS011;3510;43.200;27.920;2023-02-28T13:10:11;11.00;;;7.53;;
6941;SDS011;3510;43.200;27.920;2023-02-28T13:12:46;13.60;;;7.30;;
6941;SDS011;3510;43.200;27.920;2023-02-28T13:15:16;10.03;;;6.73;;
6941;SDS011;3510;43.200;27.920;2023-02-28T13:17:49;10.03;;;8.50;;
6941;SDS011;3510;43.200;27.920;2023-02-28T13:20:19;12.25;;;9.90;;
6941;SDS011;3510;43.200;27.920;2023-02-28T13:22:48;14.73;;;8.50;;
6941;SDS011;3510;43.200;27.920;2023-02-28T13:28:14;12.77;;;9.87;;
6941;SDS011;3510;43.200;27.920;2023-02-28T13:31:13;10.87;;;8.17;;
6941;SDS011;3510;43.200;27.920;2023-02-28T13:36:40;9.90;;;9.03;;
